sensor_id;sensor_type;location;lat;lon;timestamp;pressure;altitude;pressure_sealevel;temperature;humidity
72925;BME280;61070;50.794;7.054;2023-03-14T00:00:12;98465.53;;;10.99;83.27
72925;BME280;61070;50.794;7.054;2023-03-14T00:02:38;98477.84;;;11.00;83.53
72925;BME280;61070;50.794;7.054;2023-03-14T00:05:04;98470.03;;;10.97;83.49
72925;BME280;61070;50.794;7.054;2023-03-14T00:07:33;98461.56;;;10.91;83.82
72925;BME280;61070;50.794;7.054;2023-03-14T00:10:01;98473.72;;;11.12;82.77
72925;BME280;61070;50.794;7.054;2023-03-14T00:12:27;98491.78;;;11.04;83.13
72925;BME280;61070;50.794;7.054;2023-03-14T00:14:53;98506.91;;;11.02;83.18
72925;BME280;61070;50.794;7.054;2023-03-14T00:17:19;98512.28;;;11.00;83.01
72925;BME280;61070;50.794;7.054;2023-03-14T00:19:44;98500.88;;;10.98;83.35
72925;BME280;61070;50.794;7.054;2023-03-14T00:22:09;98490.25;;;11.00;82.96
72925;BME280;61070;50.794;7.054;2023-03-14T00:24:34;98489.22;;;11.02;82.93
72925;BME280;61070;50.794;7.054;2023-03-14T00:27:00;98501.09;;;11.13;82.38
72925;BME280;61070;50.794;7.054;2023-03-14T00:29:25;98505.59;;;11.28;81.54
72925;BME280;61070;50.794;7.054;2023-03-14T00:31:50;98503.66;;;11.31;81.54
72925;BME280;61070;50.794;7.054;2023-03-14T00:34:16;98497.28;;;11.35;81.24
72925;BME280;61070;50.794;7.054;2023-03-14T00:36:41;98499.59;;;11.42;80.94
72925;BME280;61070;50.794;7.054;2023-03-14T00:39:06;98509.75;;;11.51;80.34
72925;BME280;61070;50.794;7.054;2023-03-14T00:41:31;98508.81;;;11.52;80.65
72925;BME280;61070;50.794;7.054;2023-03-14T00:43:57;98503.19;;;11.41;81.26
72925;BME280;61070;50.794;7.054;2023-03-14T00:46:22;98489.66;;;11.47;81.03
72925;BME280;61070;50.794;7.054;2023-03-14T00:48:48;98493.44;;;11.41;81.32
72925;BME280;61070;50.794;7.054;2023-03-14T00:51:13;98494.53;;;11.54;81.09
72925;BME280;61070;50.794;7.054;2023-03-14T00:53:40;98499.59;;;11.42;81.63
72925;BME280;61070;50.794;7.054;2023-03-14T00:56:08;98505.06;;;11.38;81.84
72925;BME280;61070;50.794;7.054;2023-03-14T00:58:34;98512.00;;;11.41;81.77
72925;BME280;61070;50.794;7.054;2023-03-14T01:01:08;98513.81;;;11.41;82.17
72925;BME280;61070;50.794;7.054;2023-03-14T01:03:34;98507.19;;;11.49;81.23
72925;BME280;61070;50.794;7.054;2023-03-14T01:06:11;98510.94;;;11.45;81.47
72925;BME280;61070;50.794;7.054;2023-03-14T01:08:37;98510.38;;;11.38;82.23
72925;BME280;61070;50.794;7.054;2023-03-14T01:11:09;98506.56;;;11.44;81.45
72925;BME280;61070;50.794;7.054;2023-03-14T01:13:35;98513.03;;;11.56;80.41
72925;BME280;61070;50.794;7.054;2023-03-14T01:16:03;98516.75;;;11.52;80.61
72925;BME280;61070;50.794;7.054;2023-03-14T01:18:30;98515.06;;;11.51;80.59
72925;BME280;61070;50.794;7.054;2023-03-14T01:20:56;98511.59;;;11.66;80.09
72925;BME280;61070;50.794;7.054;2023-03-14T01:23:21;98502.66;;;11.69;79.62
72925;BME280;61070;50.794;7.054;2023-03-14T01:25:47;98503.44;;;11.71;79.65
72925;BME280;61070;50.794;7.054;2023-03-14T01:28:12;98499.53;;;11.60;80.51
72925;BME280;61070;50.794;7.054;2023-03-14T01:30:37;98499.78;;;11.56;81.98
72925;BME280;61070;50.794;7.054;2023-03-14T01:33:03;98496.03;;;11.60;82.58
72925;BME280;61070;50.794;7.054;2023-03-14T01:35:28;98495.72;;;11.49;84.75
72925;BME280;61070;50.794;7.054;2023-03-14T01:37:53;98500.16;;;11.31;87.98
72925;BME280;61070;50.794;7.054;2023-03-14T01:40:18;98503.97;;;11.25;88.11
72925;BME280;61070;50.794;7.054;2023-03-14T01:42:55;98503.66;;;11.31;87.01
72925;BME280;61070;50.794;7.054;2023-03-14T01:49:05;98496.88;;;11.26;87.84
72925;BME280;61070;50.794;7.054;2023-03-14T01:51:36;98484.47;;;11.09;89.70
72925;BME280;61070;50.794;7.054;2023-03-14T01:56:43;98493.81;;;10.99;90.13
72925;BME280;61070;50.794;7.054;2023-03-14T01:59:11;98514.47;;;11.09;91.07
72925;BME280;61070;50.794;7.054;2023-03-14T02:01:38;98552.16;;;10.02;95.75
72925;BME280;61070;50.794;7.054;2023-03-14T02:04:07;98518.72;;;9.60;100.00
72925;BME280;61070;50.794;7.054;2023-03-14T02:07:15;98506.72;;;9.53;100.00
72925;BME280;61070;50.794;7.054;2023-03-14T02:09:32;98494.91;;;9.41;100.00
72925;BME280;61070;50.794;7.054;2023-03-14T02:11:58;98493.66;;;9.28;100.00
72925;BME280;61070;50.794;7.054;2023-03-14T02:14:31;98488.00;;;9.37;100.00
72925;BME280;61070;50.794;7.054;2023-03-14T02:16:58;98484.56;;;9.35;100.00
72925;BME280;61070;50.794;7.054;2023-03-14T02:22:11;98490.00;;;9.32;100.00
72925;BME280;61070;50.794;7.054;2023-03-14T02:27:17;98486.88;;;9.22;100.00
72925;BME280;61070;50.794;7.054;2023-03-14T02:32:20;98475.97;;;9.10;100.00
72925;BME280;61070;50.794;7.054;2023-03-14T02:34:50;98470.75;;;9.08;100.00
72925;BME280;61070;50.794;7.054;2023-03-14T02:37:19;98457.81;;;9.02;100.00
72925;BME280;61070;50.794;7.054;2023-03-14T02:39:46;98459.19;;;9.11;100.00
72925;BME280;61070;50.794;7.054;2023-03-14T02:42:14;98460.91;;;9.12;100.00
72925;BME280;61070;50.794;7.054;2023-03-14T02:47:37;98447.09;;;9.05;100.00
72925;BME280;61070;50.794;7.054;2023-03-14T02:50:09;98433.13;;;9.23;100.00
72925;BME280;61070;50.794;7.054;2023-03-14T02:52:35;98421.63;;;9.24;100.00
72925;BME280;61070;50.794;7.054;2023-03-14T02:55:00;98435.31;;;9.34;100.00
72925;BME280;61070;50.794;7.054;2023-03-14T02:57:26;98420.84;;;9.22;100.00
72925;BME280;61070;50.794;7.054;2023-03-14T02:59:51;98417.53;;;9.17;100.00
72925;BME280;61070;50.794;7.054;2023-03-14T03:02:18;98414.63;;;9.23;100.00
72925;BME280;61070;50.794;7.054;2023-03-14T03:04:43;98419.38;;;9.15;100.00
72925;BME280;61070;50.794;7.054;2023-03-14T03:07:08;98420.91;;;9.21;100.00
72925;BME280;61070;50.794;7.054;2023-03-14T03:09:34;98414.69;;;9.22;100.00
72925;BME280;61070;50.794;7.054;2023-03-14T03:11:59;98414.84;;;9.19;100.00
72925;BME280;61070;50.794;7.054;2023-03-14T03:14:24;98408.03;;;9.13;100.00
72925;BME280;61070;50.794;7.054;2023-03-14T03:16:50;98407.16;;;9.13;100.00
72925;BME280;61070;50.794;7.054;2023-03-14T03:19:15;98405.84;;;9.23;100.00
72925;BME280;61070;50.794;7.054;2023-03-14T03:21:43;98407.31;;;9.30;100.00
72925;BME280;61070;50.794;7.054;2023-03-14T03:24:08;98399.81;;;9.40;100.00
72925;BME280;61070;50.794;7.054;2023-03-14T03:26:34;98409.47;;;9.41;100.00
72925;BME280;61070;50.794;7.054;2023-03-14T03:29:00;98402.66;;;9.55;100.00
72925;BME280;61070;50.794;7.054;2023-03-14T03:31:25;98407.06;;;9.55;100.00
72925;BME280;61070;50.794;7.054;2023-03-14T03:33:50;98403.84;;;9.48;100.00
72925;BME280;61070;50.794;7.054;2023-03-14T03:36:20;98405.94;;;9.60;99.78
72925;BME280;61070;50.794;7.054;2023-03-14T03:38:46;98407.22;;;9.71;98.08
72925;BME280;61070;50.794;7.054;2023-03-14T03:41:11;98406.66;;;9.64;99.00
72925;BME280;61070;50.794;7.054;2023-03-14T03:43:36;98400.53;;;9.63;99.41
72925;BME280;61070;50.794;7.054;2023-03-14T03:46:03;98398.75;;;9.64;99.24
72925;BME280;61070;50.794;7.054;2023-03-14T03:48:30;98389.50;;;9.54;100.00
72925;BME280;61070;50.794;7.054;2023-03-14T03:50:55;98395.66;;;9.54;100.00
72925;BME280;61070;50.794;7.054;2023-03-14T03:53:20;98397.44;;;9.54;100.00
72925;BME280;61070;50.794;7.054;2023-03-14T03:55:46;98395.66;;;9.54;100.00
72925;BME280;61070;50.794;7.054;2023-03-14T03:58:11;98406.94;;;9.58;100.00
72925;BME280;61070;50.794;7.054;2023-03-14T04:00:36;98398.78;;;9.62;99.79
72925;BME280;61070;50.794;7.054;2023-03-14T04:03:01;98397.22;;;9.58;100.00
72925;BME280;61070;50.794;7.054;2023-03-14T04:05:27;98392.84;;;9.57;100.00
72925;BME280;61070;50.794;7.054;2023-03-14T04:07:52;98392.84;;;9.57;100.00
72925;BME280;61070;50.794;7.054;2023-03-14T04:10:17;98387.50;;;9.59;99.69
72925;BME280;61070;50.794;7.054;2023-03-14T04:12:43;98395.34;;;9.60;100.00
72925;BME280;61070;50.794;7.054;2023-03-14T04:15:08;98394.94;;;9.70;99.67
72925;BME280;61070;50.794;7.054;2023-03-14T04:17:34;98401.88;;;9.72;99.09
72925;BME280;61070;50.794;7.054;2023-03-14T04:19:59;98396.47;;;9.75;99.09
72925;BME280;61070;50.794;7.054;2023-03-14T04:22:24;98398.53;;;9.69;100.00
72925;BME280;61070;50.794;7.054;2023-03-14T04:24:50;98390.09;;;9.79;99.07
72925;BME280;61070;50.794;7.054;2023-03-14T04:27:15;98389.25;;;9.79;98.96
72925;BME280;61070;50.794;7.054;2023-03-14T04:29:42;98399.19;;;9.92;97.73
72925;BME280;61070;50.794;7.054;2023-03-14T04:32:07;98386.44;;;9.82;99.17
72925;BME280;61070;50.794;7.054;2023-03-14T04:34:32;98385.16;;;9.72;99.95
72925;BME280;61070;50.794;7.054;2023-03-14T04:36:58;98381.09;;;9.83;98.55
72925;BME280;61070;50.794;7.054;2023-03-14T04:39:23;98382.25;;;9.78;100.00
72925;BME280;61070;50.794;7.054;2023-03-14T04:41:48;98377.88;;;9.77;100.00
72925;BME280;61070;50.794;7.054;2023-03-14T04:44:13;98377.03;;;9.76;100.00
72925;BME280;61070;50.794;7.054;2023-03-14T04:46:39;98378.00;;;9.74;100.00
72925;BME280;61070;50.794;7.054;2023-03-14T04:49:04;98360.59;;;9.70;100.00
72925;BME280;61070;50.794;7.054;2023-03-14T04:51:29;98366.00;;;9.67;100.00
72925;BME280;61070;50.794;7.054;2023-03-14T04:53:55;98367.94;;;9.63;100.00
72925;BME280;61070;50.794;7.054;2023-03-14T04:56:20;98368.72;;;9.65;100.00
72925;BME280;61070;50.794;7.054;2023-03-14T04:58:46;98360.88;;;9.63;100.00
72925;BME280;61070;50.794;7.054;2023-03-14T05:01:11;98364.41;;;9.62;100.00
72925;BME280;61070;50.794;7.054;2023-03-14T05:03:36;98357.78;;;9.54;100.00
72925;BME280;61070;50.794;7.054;2023-03-14T05:06:03;98355.94;;;9.56;100.00
72925;BME280;61070;50.794;7.054;2023-03-14T05:08:29;98347.00;;;9.58;100.00
72925;BME280;61070;50.794;7.054;2023-03-14T05:10:56;98337.50;;;9.54;100.00
72925;BME280;61070;50.794;7.054;2023-03-14T05:13:22;98326.94;;;9.54;100.00
72925;BME280;61070;50.794;7.054;2023-03-14T05:15:47;98324.16;;;9.57;100.00
72925;BME280;61070;50.794;7.054;2023-03-14T05:18:13;98325.22;;;9.53;100.00
72925;BME280;61070;50.794;7.054;2023-03-14T05:20:38;98314.78;;;9.50;100.00
72925;BME280;61070;50.794;7.054;2023-03-14T05:23:04;98321.56;;;9.56;100.00
72925;BME280;61070;50.794;7.054;2023-03-14T05:25:29;98311.88;;;9.75;100.00
72925;BME280;61070;50.794;7.054;2023-03-14T05:27:54;98304.53;;;9.63;100.00
72925;BME280;61070;50.794;7.054;2023-03-14T05:30:20;98308.34;;;9.56;100.00
72925;BME280;61070;50.794;7.054;2023-03-14T05:32:46;98299.28;;;9.61;100.00
72925;BME280;61070;50.794;7.054;2023-03-14T05:35:12;98299.28;;;9.61;100.00
72925;BME280;61070;50.794;7.054;2023-03-14T05:37:37;98309.66;;;9.66;100.00
72925;BME280;61070;50.794;7.054;2023-03-14T05:40:03;98309.56;;;9.68;100.00
72925;BME280;61070;50.794;7.054;2023-03-14T05:42:31;98304.72;;;9.58;100.00
72925;BME280;61070;50.794;7.054;2023-03-14T05:44:56;98312.50;;;9.61;100.00
72925;BME280;61070;50.794;7.054;2023-03-14T05:47:22;98318.44;;;9.67;100.00
72925;BME280;61070;50.794;7.054;2023-03-14T05:49:47;98317.00;;;9.59;100.00
72925;BME280;61070;50.794;7.054;2023-03-14T05:52:13;98310.69;;;9.62;100.00
72925;BME280;61070;50.794;7.054;2023-03-14T05:54:39;98317.84;;;9.79;99.18
72925;BME280;61070;50.794;7.054;2023-03-14T05:57:04;98312.13;;;9.69;100.00
72925;BME280;61070;50.794;7.054;2023-03-14T05:59:29;98320.50;;;9.60;100.00
72925;BME280;61070;50.794;7.054;2023-03-14T06:01:55;98307.63;;;9.71;100.00
72925;BME280;61070;50.794;7.054;2023-03-14T06:04:20;98309.84;;;9.61;100.00
72925;BME280;61070;50.794;7.054;2023-03-14T06:06:45;98297.13;;;9.70;100.00
72925;BME280;61070;50.794;7.054;2023-03-14T06:09:11;98309.28;;;9.55;100.00
72925;BME280;61070;50.794;7.054;2023-03-14T06:11:36;98303.78;;;9.59;100.00
72925;BME280;61070;50.794;7.054;2023-03-14T06:14:01;98293.13;;;9.61;100.00
72925;BME280;61070;50.794;7.054;2023-03-14T06:16:26;98294.50;;;9.70;100.00
72925;BME280;61070;50.794;7.054;2023-03-14T06:18:52;98289.50;;;9.63;100.00
72925;BME280;61070;50.794;7.054;2023-03-14T06:21:18;98287.41;;;9.70;100.00
72925;BME280;61070;50.794;7.054;2023-03-14T06:23:44;98286.63;;;9.68;100.00
72925;BME280;61070;50.794;7.054;2023-03-14T06:26:10;98292.00;;;9.67;100.00
72925;BME280;61070;50.794;7.054;2023-03-14T06:28:37;98285.44;;;9.56;100.00
72925;BME280;61070;50.794;7.054;2023-03-14T06:31:02;98278.72;;;9.49;100.00
72925;BME280;61070;50.794;7.054;2023-03-14T06:33:28;98281.69;;;9.60;100.00
72925;BME280;61070;50.794;7.054;2023-03-14T06:35:53;98282.63;;;9.59;100.00
72925;BME280;61070;50.794;7.054;2023-03-14T06:38:19;98287.00;;;9.60;100.00
72925;BME280;61070;50.794;7.054;2023-03-14T06:40:44;98283.91;;;9.70;100.00
72925;BME280;61070;50.794;7.054;2023-03-14T06:43:09;98287.66;;;9.66;100.00
72925;BME280;61070;50.794;7.054;2023-03-14T06:45:34;98286.13;;;9.79;100.00
72925;BME280;61070;50.794;7.054;2023-03-14T06:48:00;98283.25;;;9.83;100.00
72925;BME280;61070;50.794;7.054;2023-03-14T06:50:25;98297.63;;;9.78;100.00
72925;BME280;61070;50.794;7.054;2023-03-14T06:52:50;98299.59;;;9.74;100.00
72925;BME280;61070;50.794;7.054;2023-03-14T06:55:16;98307.78;;;9.87;100.00
72925;BME280;61070;50.794;7.054;2023-03-14T06:57:41;98294.91;;;9.98;100.00
72925;BME280;61070;50.794;7.054;2023-03-14T07:00:08;98296.63;;;9.99;100.00
72925;BME280;61070;50.794;7.054;2023-03-14T07:02:33;98307.75;;;10.06;100.00
72925;BME280;61070;50.794;7.054;2023-03-14T07:04:59;98305.09;;;10.25;98.74
72925;BME280;61070;50.794;7.054;2023-03-14T07:07:26;98304.81;;;10.31;97.78
72925;BME280;61070;50.794;7.054;2023-03-14T07:09:51;98303.72;;;10.35;97.86
72925;BME280;61070;50.794;7.054;2023-03-14T07:12:16;98304.31;;;10.40;96.17
72925;BME280;61070;50.794;7.054;2023-03-14T07:14:42;98310.97;;;10.31;96.35
72925;BME280;61070;50.794;7.054;2023-03-14T07:17:07;98301.44;;;10.27;96.59
72925;BME280;61070;50.794;7.054;2023-03-14T07:19:32;98308.00;;;10.18;98.22
72925;BME280;61070;50.794;7.054;2023-03-14T07:21:57;98307.47;;;10.31;97.23
72925;BME280;61070;50.794;7.054;2023-03-14T07:24:23;98309.16;;;10.32;97.73
72925;BME280;61070;50.794;7.054;2023-03-14T07:26:48;98311.97;;;10.46;97.07
72925;BME280;61070;50.794;7.054;2023-03-14T07:29:13;98315.16;;;10.53;96.02
72925;BME280;61070;50.794;7.054;2023-03-14T07:31:39;98324.22;;;10.66;95.49
72925;BME280;61070;50.794;7.054;2023-03-14T07:34:04;98322.19;;;10.71;95.21
72925;BME280;61070;50.794;7.054;2023-03-14T07:36:29;98329.81;;;10.77;96.53
72925;BME280;61070;50.794;7.054;2023-03-14T07:38:54;98331.03;;;10.87;96.35
72925;BME280;61070;50.794;7.054;2023-03-14T07:41:21;98337.91;;;10.91;95.43
72925;BME280;61070;50.794;7.054;2023-03-14T07:43:48;98337.91;;;10.91;95.62
72925;BME280;61070;50.794;7.054;2023-03-14T07:46:13;98345.63;;;11.13;94.03
72925;BME280;61070;50.794;7.054;2023-03-14T07:48:39;98348.47;;;11.08;94.19
72925;BME280;61070;50.794;7.054;2023-03-14T07:51:05;98354.78;;;11.23;93.53
72925;BME280;61070;50.794;7.054;2023-03-14T07:53:30;98353.59;;;11.46;91.50
72925;BME280;61070;50.794;7.054;2023-03-14T07:55:56;98352.00;;;11.42;92.45
72925;BME280;61070;50.794;7.054;2023-03-14T07:58:21;98344.34;;;11.53;92.85
72925;BME280;61070;50.794;7.054;2023-03-14T08:00:47;98345.91;;;11.57;91.62
72925;BME280;61070;50.794;7.054;2023-03-14T08:03:13;98343.16;;;11.59;91.96
72925;BME280;61070;50.794;7.054;2023-03-14T08:05:38;98340.63;;;11.73;90.69
72925;BME280;61070;50.794;7.054;2023-03-14T08:08:04;98334.66;;;11.85;91.25
72925;BME280;61070;50.794;7.054;2023-03-14T08:10:30;98333.50;;;11.91;89.20
72925;BME280;61070;50.794;7.054;2023-03-14T08:12:58;98335.53;;;11.86;88.55
72925;BME280;61070;50.794;7.054;2023-03-14T08:15:24;98342.53;;;11.87;89.42
72925;BME280;61070;50.794;7.054;2023-03-14T08:17:50;98335.09;;;11.93;88.84
72925;BME280;61070;50.794;7.054;2023-03-14T08:20:25;98336.31;;;12.04;87.87
72925;BME280;61070;50.794;7.054;2023-03-14T08:22:50;98342.06;;;12.12;87.48
72925;BME280;61070;50.794;7.054;2023-03-14T08:25:16;98347.94;;;12.17;87.18
72925;BME280;61070;50.794;7.054;2023-03-14T08:27:41;98339.72;;;12.21;86.56
72925;BME280;61070;50.794;7.054;2023-03-14T08:30:10;98364.63;;;12.19;85.64
72925;BME280;61070;50.794;7.054;2023-03-14T08:32:36;98360.28;;;12.18;85.89
72925;BME280;61070;50.794;7.054;2023-03-14T08:35:01;98359.84;;;12.10;84.77
72925;BME280;61070;50.794;7.054;2023-03-14T08:37:26;98358.84;;;12.12;85.35
72925;BME280;61070;50.794;7.054;2023-03-14T08:39:52;98355.50;;;12.24;85.39
72925;BME280;61070;50.794;7.054;2023-03-14T08:42:18;98363.00;;;12.32;85.65
72925;BME280;61070;50.794;7.054;2023-03-14T08:44:43;98364.47;;;12.22;86.03
72925;BME280;61070;50.794;7.054;2023-03-14T08:47:09;98357.19;;;12.26;85.44
72925;BME280;61070;50.794;7.054;2023-03-14T08:49:34;98371.84;;;12.17;85.68
72925;BME280;61070;50.794;7.054;2023-03-14T08:52:01;98357.03;;;12.13;85.84
72925;BME280;61070;50.794;7.054;2023-03-14T08:54:29;98363.28;;;12.12;86.78
72925;BME280;61070;50.794;7.054;2023-03-14T08:56:54;98366.00;;;12.10;85.75
72925;BME280;61070;50.794;7.054;2023-03-14T08:59:19;98372.34;;;11.92;88.40
72925;BME280;61070;50.794;7.054;2023-03-14T09:01:45;98380.03;;;11.97;88.19
72925;BME280;61070;50.794;7.054;2023-03-14T09:04:10;98374.72;;;11.97;87.62
72925;BME280;61070;50.794;7.054;2023-03-14T09:06:35;98385.88;;;12.03;88.38
72925;BME280;61070;50.794;7.054;2023-03-14T09:09:01;98384.41;;;11.98;91.26
72925;BME280;61070;50.794;7.054;2023-03-14T09:11:26;98399.53;;;11.80;93.08
72925;BME280;61070;50.794;7.054;2023-03-14T09:13:52;98409.13;;;11.82;94.61
72925;BME280;61070;50.794;7.054;2023-03-14T09:16:17;98412.69;;;11.48;96.61
72925;BME280;61070;50.794;7.054;2023-03-14T09:18:42;98416.19;;;11.31;98.37
72925;BME280;61070;50.794;7.054;2023-03-14T09:21:08;98420.28;;;11.21;100.00
72925;BME280;61070;50.794;7.054;2023-03-14T09:23:33;98419.16;;;11.25;100.00
72925;BME280;61070;50.794;7.054;2023-03-14T09:25:59;98422.75;;;11.24;100.00
72925;BME280;61070;50.794;7.054;2023-03-14T09:28:25;98431.47;;;11.26;100.00
72925;BME280;61070;50.794;7.054;2023-03-14T09:30:50;98428.06;;;11.24;100.00
72925;BME280;61070;50.794;7.054;2023-03-14T09:33:16;98428.44;;;11.34;100.00
72925;BME280;61070;50.794;7.054;2023-03-14T09:35:42;98435.00;;;11.27;100.00
72925;BME280;61070;50.794;7.054;2023-03-14T09:38:07;98441.69;;;11.34;100.00
72925;BME280;61070;50.794;7.054;2023-03-14T09:40:36;98451.84;;;11.26;100.00
72925;BME280;61070;50.794;7.054;2023-03-14T09:43:03;98455.81;;;11.34;100.00
72925;BME280;61070;50.794;7.054;2023-03-14T09:47:59;98460.03;;;11.21;100.00
72925;BME280;61070;50.794;7.054;2023-03-14T09:50:31;98462.97;;;11.32;100.00
72925;BME280;61070;50.794;7.054;2023-03-14T09:53:02;98487.22;;;11.25;100.00
72925;BME280;61070;50.794;7.054;2023-03-14T09:55:29;98540.72;;;10.40;100.00
72925;BME280;61070;50.794;7.054;2023-03-14T09:57:59;98554.19;;;9.34;98.90
72925;BME280;61070;50.794;7.054;2023-03-14T10:00:29;98572.53;;;8.95;100.00
72925;BME280;61070;50.794;7.054;2023-03-14T10:03:00;98610.47;;;8.69;100.00
72925;BME280;61070;50.794;7.054;2023-03-14T10:05:32;98617.88;;;8.59;100.00
72925;BME280;61070;50.794;7.054;2023-03-14T10:07:57;98624.19;;;8.55;100.00
72925;BME280;61070;50.794;7.054;2023-03-14T10:10:25;98648.81;;;8.56;100.00
72925;BME280;61070;50.794;7.054;2023-03-14T10:13:21;98656.19;;;8.46;100.00
72925;BME280;61070;50.794;7.054;2023-03-14T10:15:55;98679.34;;;8.38;100.00
72925;BME280;61070;50.794;7.054;2023-03-14T10:18:23;98687.56;;;8.29;100.00
72925;BME280;61070;50.794;7.054;2023-03-14T10:21:01;98697.16;;;8.31;100.00
72925;BME280;61070;50.794;7.054;2023-03-14T10:23:29;98712.25;;;8.26;100.00
72925;BME280;61070;50.794;7.054;2023-03-14T10:26:23;98713.66;;;8.11;100.00
72925;BME280;61070;50.794;7.054;2023-03-14T10:28:53;98710.41;;;8.03;100.00
72925;BME280;61070;50.794;7.054;2023-03-14T10:31:25;98746.88;;;7.91;100.00
72925;BME280;61070;50.794;7.054;2023-03-14T10:34:03;98746.03;;;8.15;100.00
72925;BME280;61070;50.794;7.054;2023-03-14T10:36:30;98768.28;;;8.08;100.00
72925;BME280;61070;50.794;7.054;2023-03-14T10:41:53;98780.16;;;7.95;100.00
72925;BME280;61070;50.794;7.054;2023-03-14T10:44:24;98793.22;;;7.98;100.00
72925;BME280;61070;50.794;7.054;2023-03-14T10:47:01;98793.38;;;7.93;100.00
72925;BME280;61070;50.794;7.054;2023-03-14T10:49:36;98808.34;;;7.91;100.00
72925;BME280;61070;50.794;7.054;2023-03-14T10:52:19;98808.31;;;7.93;100.00
72925;BME280;61070;50.794;7.054;2023-03-14T10:54:49;98809.09;;;7.96;100.00
72925;BME280;61070;50.794;7.054;2023-03-14T10:57:19;98798.53;;;7.96;100.00
72925;BME280;61070;50.794;7.054;2023-03-14T10:59:45;98817.63;;;8.04;100.00
72925;BME280;61070;50.794;7.054;2023-03-14T11:05:31;98846.47;;;8.09;100.00
72925;BME280;61070;50.794;7.054;2023-03-14T11:10:48;98848.19;;;8.10;100.00
72925;BME280;61070;50.794;7.054;2023-03-14T11:13:23;98864.47;;;7.96;100.00
72925;BME280;61070;50.794;7.054;2023-03-14T11:16:06;98866.03;;;8.02;100.00
72925;BME280;61070;50.794;7.054;2023-03-14T11:27:03;98875.91;;;8.51;100.00
72925;BME280;61070;50.794;7.054;2023-03-14T11:32:14;98877.84;;;8.97;100.00
72925;BME280;61070;50.794;7.054;2023-03-14T11:34:53;98878.44;;;9.05;99.36
72925;BME280;61070;50.794;7.054;2023-03-14T11:37:36;98883.31;;;9.18;97.16
72925;BME280;61070;50.794;7.054;2023-03-14T11:40:22;98898.34;;;9.39;95.58
72925;BME280;61070;50.794;7.054;2023-03-14T11:43:10;98885.06;;;9.42;94.38
72925;BME280;61070;50.794;7.054;2023-03-14T11:45:38;98890.88;;;9.52;93.48
72925;BME280;61070;50.794;7.054;2023-03-14T11:48:28;98880.25;;;9.28;90.61
72925;BME280;61070;50.794;7.054;2023-03-14T11:50:57;98899.53;;;9.32;92.42
72925;BME280;61070;50.794;7.054;2023-03-14T11:56:11;98928.34;;;9.13;92.47
72925;BME280;61070;50.794;7.054;2023-03-14T11:58:45;98939.63;;;9.18;91.88
72925;BME280;61070;50.794;7.054;2023-03-14T12:01:13;98953.44;;;9.26;93.31
72925;BME280;61070;50.794;7.054;2023-03-14T12:03:46;98972.88;;;8.99;91.22
72925;BME280;61070;50.794;7.054;2023-03-14T12:06:28;99003.72;;;8.42;90.93
72925;BME280;61070;50.794;7.054;2023-03-14T12:08:58;99020.69;;;7.72;93.68
72925;BME280;61070;50.794;7.054;2023-03-14T12:14:21;99048.34;;;7.55;97.72
72925;BME280;61070;50.794;7.054;2023-03-14T12:16:49;99057.88;;;7.27;98.69
72925;BME280;61070;50.794;7.054;2023-03-14T12:22:17;99069.41;;;7.21;100.00
72925;BME280;61070;50.794;7.054;2023-03-14T12:24:49;99089.53;;;7.25;100.00
72925;BME280;61070;50.794;7.054;2023-03-14T12:35:45;99120.88;;;7.36;100.00
72925;BME280;61070;50.794;7.054;2023-03-14T12:38:15;99129.00;;;7.27;100.00
72925;BME280;61070;50.794;7.054;2023-03-14T12:43:27;99143.19;;;7.20;100.00
72925;BME280;61070;50.794;7.054;2023-03-14T12:51:38;99159.47;;;7.36;100.00
72925;BME280;61070;50.794;7.054;2023-03-14T12:59:35;99184.88;;;7.40;97.20
72925;BME280;61070;50.794;7.054;2023-03-14T13:04:34;99203.38;;;7.37;93.95
72925;BME280;61070;50.794;7.054;2023-03-14T13:07:03;99204.53;;;7.23;94.11
72925;BME280;61070;50.794;7.054;2023-03-14T13:12:09;99229.09;;;7.24;96.40
72925;BME280;61070;50.794;7.054;2023-03-14T13:14:35;99226.94;;;7.04;97.37
72925;BME280;61070;50.794;7.054;2023-03-14T13:17:02;99236.88;;;6.90;99.21
72925;BME280;61070;50.794;7.054;2023-03-14T13:19:29;99240.50;;;6.84;99.43
72925;BME280;61070;50.794;7.054;2023-03-14T13:22:06;99250.84;;;6.93;99.67
72925;BME280;61070;50.794;7.054;2023-03-14T13:24:40;99248.44;;;6.83;98.81
72925;BME280;61070;50.794;7.054;2023-03-14T13:27:19;99258.28;;;6.73;99.18
72925;BME280;61070;50.794;7.054;2023-03-14T13:29:48;99271.25;;;6.82;98.71
72925;BME280;61070;50.794;7.054;2023-03-14T13:32:20;99284.56;;;6.75;100.00
72925;BME280;61070;50.794;7.054;2023-03-14T13:34:47;99290.81;;;6.69;98.70
72925;BME280;61070;50.794;7.054;2023-03-14T13:37:21;99305.81;;;6.64;99.65
72925;BME280;61070;50.794;7.054;2023-03-14T13:39:52;99316.47;;;6.56;99.93
72925;BME280;61070;50.794;7.054;2023-03-14T13:42:18;99316.69;;;6.44;100.00
72925;BME280;61070;50.794;7.054;2023-03-14T13:44:44;99317.25;;;6.61;100.00
72925;BME280;61070;50.794;7.054;2023-03-14T13:47:16;99331.94;;;6.73;100.00
72925;BME280;61070;50.794;7.054;2023-03-14T13:49:43;99342.66;;;7.09;100.00
72925;BME280;61070;50.794;7.054;2023-03-14T13:52:30;99340.97;;;7.06;98.28
72925;BME280;61070;50.794;7.054;2023-03-14T13:54:57;99349.63;;;7.11;98.81
72925;BME280;61070;50.794;7.054;2023-03-14T13:57:24;99348.53;;;7.23;97.23
72925;BME280;61070;50.794;7.054;2023-03-14T14:00:06;99361.00;;;7.15;96.45
72925;BME280;61070;50.794;7.054;2023-03-14T14:02:36;99364.44;;;7.18;96.64
72925;BME280;61070;50.794;7.054;2023-03-14T14:05:03;99370.56;;;6.72;98.31
72925;BME280;61070;50.794;7.054;2023-03-14T14:07:29;99392.06;;;6.47;100.00
72925;BME280;61070;50.794;7.054;2023-03-14T14:09:54;99407.19;;;6.31;100.00
72925;BME280;61070;50.794;7.054;2023-03-14T14:14:57;99416.97;;;6.21;100.00
72925;BME280;61070;50.794;7.054;2023-03-14T14:17:31;99422.28;;;6.20;100.00
72925;BME280;61070;50.794;7.054;2023-03-14T14:19:59;99425.91;;;6.09;99.33
72925;BME280;61070;50.794;7.054;2023-03-14T14:22:25;99433.72;;;6.16;98.83